createdAt,value
2022-08-03T00:00:36.089Z,17.24
2022-08-03T00:03:04.962Z,17.03
2022-08-03T00:05:34.230Z,17.21
2022-08-03T00:08:03.585Z,17.07
2022-08-03T00:10:32.317Z,17.25
2022-08-03T00:13:00.270Z,17.51
2022-08-03T00:15:28.786Z,17.15
2022-08-03T00:17:56.699Z,16.82
2022-08-03T00:20:25.177Z,16.82
2022-08-03T00:22:53.624Z,16.98
2022-08-03T00:25:23.076Z,17.26
2022-08-03T00:27:51.178Z,17.17
2022-08-03T00:30:19.981Z,16.95
2022-08-03T00:32:48.715Z,16.73
2022-08-03T00:35:32.488Z,16.80
2022-08-03T00:38:06.402Z,16.92
2022-08-03T00:40:36.837Z,16.86
2022-08-03T00:43:06.264Z,16.78
2022-08-03T00:45:36.629Z,16.81
2022-08-03T00:48:06.708Z,17.14
2022-08-03T00:50:55.333Z,16.87
2022-08-03T00:53:23.061Z,16.89
2022-08-03T00:55:52.503Z,16.94
2022-08-03T00:58:20.505Z,16.98
2022-08-03T01:00:49.400Z,16.72
2022-08-03T01:03:18.209Z,16.73
2022-08-03T01:05:52.508Z,16.63
2022-08-03T01:08:24.667Z,16.52
2022-08-03T01:11:04.405Z,16.49
2022-08-03T01:14:01.262Z,16.41
2022-08-03T01:16:35.816Z,16.45
2022-08-03T01:19:17.372Z,16.50
2022-08-03T01:21:53.509Z,16.55
2022-08-03T01:24:34.387Z,16.60
2022-08-03T01:27:12.914Z,16.56
2022-08-03T01:30:06.241Z,16.86
2022-08-03T01:32:59.231Z,16.58
2022-08-03T01:35:38.397Z,16.45
2022-08-03T01:38:10.432Z,16.59
2022-08-03T01:40:39.017Z,16.59
2022-08-03T01:43:08.004Z,16.78
2022-08-03T01:45:37.863Z,16.78
2022-08-03T01:48:06.429Z,17.11
2022-08-03T01:52:02.859Z,16.65
2022-08-03T01:54:25.492Z,16.86
2022-08-03T01:56:55.683Z,16.72
2022-08-03T01:59:24.296Z,16.83
2022-08-03T02:02:15.664Z,16.80
2022-08-03T02:04:46.897Z,17.14
2022-08-03T02:07:15.794Z,17.25
2022-08-03T02:09:46.421Z,16.94
2022-08-03T02:12:15.868Z,16.77
2022-08-03T02:14:45.844Z,16.75
2022-08-03T02:17:15.955Z,16.87
2022-08-03T02:19:44.554Z,16.82
2022-08-03T02:22:14.757Z,16.91
2022-08-03T02:24:49.273Z,16.79
2022-08-03T02:27:21.720Z,17.48
2022-08-03T02:29:52.313Z,17.06
2022-08-03T02:32:29.130Z,16.85
2022-08-03T02:34:59.320Z,17.45
2022-08-03T02:37:29.583Z,17.09
2022-08-03T02:40:01.059Z,17.57
2022-08-03T02:42:30.441Z,16.87
2022-08-03T02:45:01.196Z,16.94
2022-08-03T02:47:54.017Z,17.23
2022-08-03T02:50:20.266Z,16.83
2022-08-03T02:52:48.722Z,16.66
2022-08-03T02:55:17.864Z,16.88
2022-08-03T02:57:47.905Z,16.87
2022-08-03T03:00:19.385Z,16.67
2022-08-03T03:02:58.506Z,17.04
2022-08-03T03:05:52.375Z,16.53
2022-08-03T03:08:25.938Z,16.48
2022-08-03T03:10:56.568Z,16.68
2022-08-03T03:13:25.129Z,16.59
2022-08-03T03:15:54.279Z,16.72
2022-08-03T03:18:25.246Z,16.74
2022-08-03T03:24:34.072Z,16.51
2022-08-03T03:27:02.355Z,16.38
2022-08-03T03:29:30.669Z,16.36
2022-08-03T03:32:09.275Z,16.25
2022-08-03T03:34:39.024Z,16.43
2022-08-03T03:37:07.471Z,16.34
2022-08-03T03:39:36.399Z,16.33
2022-08-03T03:42:06.051Z,16.54
2022-08-03T03:44:34.653Z,16.24
2022-08-03T03:47:04.210Z,16.37
2022-08-03T03:49:32.793Z,16.44
2022-08-03T03:52:08.281Z,16.62
2022-08-03T03:54:42.628Z,16.63
2022-08-03T03:57:13.020Z,16.63
2022-08-03T03:59:44.964Z,16.50
2022-08-03T04:02:13.294Z,16.45
2022-08-03T04:04:58.556Z,16.65
2022-08-03T04:07:45.812Z,16.98
2022-08-03T04:10:41.784Z,16.88
2022-08-03T04:13:11.334Z,16.93
2022-08-03T04:15:41.452Z,16.98
2022-08-03T04:18:11.808Z,16.94
2022-08-03T04:20:42.305Z,17.18
2022-08-03T04:23:15.538Z,17.29
2022-08-03T04:25:44.287Z,17.23
2022-08-03T04:28:31.214Z,17.36
2022-08-03T04:31:01.323Z,17.17
2022-08-03T04:33:30.844Z,17.27
2022-08-03T04:36:01.638Z,17.21
2022-08-03T04:38:41.524Z,17.03
2022-08-03T04:41:10.291Z,17.10
2022-08-03T04:43:40.888Z,17.37
2022-08-03T04:46:21.965Z,16.92
2022-08-03T04:48:52.276Z,17.24
2022-08-03T04:51:20.214Z,17.28
2022-08-03T04:53:50.475Z,17.01
2022-08-03T04:56:19.260Z,17.35
2022-08-03T04:58:46.986Z,17.34
2022-08-03T05:01:16.153Z,17.70
2022-08-03T05:03:44.120Z,17.66
2022-08-03T05:06:12.016Z,17.90
2022-08-03T05:08:46.198Z,17.71
2022-08-03T05:11:16.878Z,17.80
2022-08-03T05:13:46.755Z,17.63
2022-08-03T05:16:15.943Z,18.03
2022-08-03T05:18:46.190Z,18.09
2022-08-03T05:21:16.751Z,18.02
2022-08-03T05:23:44.944Z,17.98
2022-08-03T05:26:12.897Z,18.16
2022-08-03T05:28:51.119Z,18.22
2022-08-03T05:31:20.347Z,18.42
2022-08-03T05:33:49.308Z,18.69
2022-08-03T05:36:17.373Z,18.78
2022-08-03T05:38:45.265Z,18.55
2022-08-03T05:41:22.906Z,18.80
2022-08-03T05:43:54.132Z,18.86
2022-08-03T05:46:22.511Z,18.81
2022-08-03T05:48:51.631Z,19.18
2022-08-03T05:51:20.317Z,19.31
2022-08-03T05:54:55.492Z,19.51
2022-08-03T05:57:24.823Z,19.52
2022-08-03T05:59:58.840Z,19.82
2022-08-03T06:02:26.973Z,20.04
2022-08-03T06:04:55.471Z,20.03
2022-08-03T06:07:23.318Z,20.30
2022-08-03T06:10:34.520Z,20.41
2022-08-03T06:12:41.148Z,20.50
2022-08-03T06:15:11.811Z,20.59
2022-08-03T06:17:50.251Z,20.74
2022-08-03T06:20:19.552Z,20.97
2022-08-03T06:22:51.386Z,20.98
2022-08-03T06:25:28.875Z,21.16
2022-08-03T06:27:59.869Z,21.21
2022-08-03T06:30:29.336Z,21.34
2022-08-03T06:32:57.041Z,21.50
2022-08-03T06:35:24.936Z,21.73
2022-08-03T06:37:53.113Z,21.65
2022-08-03T06:40:28.472Z,21.81
2022-08-03T06:42:56.847Z,21.89
2022-08-03T06:45:25.473Z,21.87
2022-08-03T06:48:05.248Z,22.20
2022-08-03T06:50:33.587Z,22.02
2022-08-03T06:53:03.783Z,22.48
2022-08-03T06:55:32.216Z,22.29
2022-08-03T06:58:03.495Z,22.27
2022-08-03T07:00:31.919Z,22.28
2022-08-03T07:03:00.746Z,22.43
2022-08-03T07:05:33.369Z,22.46
2022-08-03T07:08:03.097Z,22.67
2022-08-03T07:10:30.916Z,22.77
2022-08-03T07:12:58.673Z,22.98
2022-08-03T07:15:54.537Z,23.36
2022-08-03T07:18:16.314Z,23.11
2022-08-03T07:20:47.410Z,23.16
2022-08-03T07:23:18.913Z,23.29
2022-08-03T07:25:48.108Z,23.33
2022-08-03T07:29:17.448Z,23.49
2022-08-03T07:31:46.456Z,23.49
2022-08-03T07:34:14.383Z,23.58
2022-08-03T07:36:43.647Z,23.71
2022-08-03T07:39:16.656Z,23.71
2022-08-03T07:41:46.243Z,23.94
2022-08-03T07:44:16.681Z,23.86
2022-08-03T07:46:45.271Z,24.07
2022-08-03T07:49:13.276Z,24.02
2022-08-03T07:51:41.513Z,24.42
2022-08-03T07:54:11.207Z,24.31
2022-08-03T07:56:39.287Z,24.29
2022-08-03T07:59:07.355Z,24.44
2022-08-03T08:01:38.123Z,24.91
2022-08-03T08:04:06.254Z,24.53
2022-08-03T08:06:34.324Z,24.67
2022-08-03T08:09:02.417Z,25.10
2022-08-03T08:11:31.694Z,25.29
2022-08-03T08:14:02.721Z,24.89
2022-08-03T08:16:30.586Z,25.06
2022-08-03T08:18:59.131Z,25.07
2022-08-03T08:21:27.653Z,25.38
2022-08-03T08:24:18.313Z,25.19
2022-08-03T08:26:49.690Z,25.53
2022-08-03T08:29:18.262Z,25.36
2022-08-03T08:31:46.672Z,25.43
2022-08-03T08:34:14.561Z,25.44
2022-08-03T08:36:43.354Z,25.60
2022-08-03T08:39:11.222Z,25.95
2022-08-03T08:41:39.238Z,26.05
2022-08-03T08:44:16.080Z,26.10
2022-08-03T08:46:44.346Z,26.50
2022-08-03T08:49:13.861Z,26.22
2022-08-03T08:51:59.583Z,26.38
2022-08-03T08:54:30.539Z,26.41
2022-08-03T08:56:59.693Z,26.61
2022-08-03T08:59:48.964Z,26.61
2022-08-03T09:02:17.467Z,26.64
2022-08-03T09:04:48.751Z,26.57
2022-08-03T09:07:20.737Z,26.68
2022-08-03T09:10:10.627Z,26.39
2022-08-03T09:12:42.310Z,26.79
2022-08-03T09:15:23.811Z,26.90
2022-08-03T09:17:54.284Z,27.14
2022-08-03T09:20:23.808Z,26.97
2022-08-03T09:22:56.796Z,26.82
2022-08-03T09:25:29.577Z,27.04
2022-08-03T09:28:06.133Z,27.13
2022-08-03T09:30:35.941Z,27.03
2022-08-03T09:33:05.016Z,27.10
2022-08-03T09:35:53.110Z,27.08
2022-08-03T09:38:24.071Z,27.47
2022-08-03T09:40:59.016Z,27.15
2022-08-03T09:43:28.617Z,27.65
2022-08-03T09:46:05.710Z,27.65
2022-08-03T09:48:35.154Z,28.03
2022-08-03T09:51:13.013Z,27.78
2022-08-03T09:53:57.032Z,27.58
2022-08-03T09:56:40.100Z,27.58
2022-08-03T09:59:08.313Z,27.93
2022-08-03T10:01:39.523Z,27.89
2022-08-03T10:04:13.407Z,27.96
2022-08-03T10:06:41.436Z,28.02
2022-08-03T10:09:10.420Z,27.81
2022-08-03T10:11:41.733Z,28.12
2022-08-03T10:14:11.214Z,28.09
2022-08-03T10:16:41.523Z,28.63
2022-08-03T10:19:10.636Z,28.39
2022-08-03T10:21:40.263Z,28.15
2022-08-03T10:24:10.808Z,27.96
2022-08-03T10:26:49.940Z,28.08
2022-08-03T10:29:24.548Z,28.25
2022-08-03T10:31:58.007Z,28.08
2022-08-03T10:34:28.181Z,28.03
2022-08-03T10:36:59.892Z,28.20
2022-08-03T10:39:30.747Z,27.92
2022-08-03T10:42:00.018Z,27.76
2022-08-03T10:44:34.527Z,28.09
2022-08-03T10:47:04.726Z,28.29
2022-08-03T10:49:34.588Z,28.86
2022-08-03T10:52:13.331Z,28.47
2022-08-03T10:55:58.215Z,28.77
2022-08-03T10:58:57.086Z,28.92
2022-08-03T11:01:59.480Z,29.32
2022-08-03T11:04:31.008Z,29.27
2022-08-03T11:07:20.700Z,28.77
2022-08-03T11:09:51.729Z,28.57
2022-08-03T11:12:30.101Z,29.06
2022-08-03T11:15:00.526Z,29.14
2022-08-03T11:17:28.603Z,29.45
2022-08-03T11:19:58.611Z,29.20
2022-08-03T11:22:29.182Z,29.73
2022-08-03T11:25:02.437Z,29.65
2022-08-03T11:27:33.192Z,29.55
2022-08-03T11:30:05.669Z,29.85
2022-08-03T11:32:53.167Z,29.49
2022-08-03T11:35:27.573Z,29.85
2022-08-03T11:38:12.499Z,29.97
2022-08-03T11:40:45.432Z,29.52
2022-08-03T11:43:46.678Z,28.96
2022-08-03T11:46:28.657Z,29.35
2022-08-03T11:49:09.979Z,29.42
2022-08-03T11:51:41.282Z,29.83
2022-08-03T11:54:09.428Z,30.07
2022-08-03T11:56:48.107Z,29.47
2022-08-03T11:59:21.771Z,29.83
2022-08-03T12:01:50.446Z,30.01
2022-08-03T12:04:18.222Z,29.30
2022-08-03T12:07:01.168Z,30.03
2022-08-03T12:09:29.195Z,30.22
2022-08-03T12:12:00.513Z,30.29
2022-08-03T12:14:48.981Z,30.62
2022-08-03T12:17:19.256Z,30.52
2022-08-03T12:19:47.721Z,30.21
2022-08-03T12:22:18.063Z,30.25
2022-08-03T12:24:47.880Z,30.95
2022-08-03T12:27:24.676Z,31.58
2022-08-03T12:29:58.649Z,31.38
2022-08-03T12:32:27.567Z,31.48
2022-08-03T12:35:00.007Z,32.31
2022-08-03T12:37:30.192Z,31.54
2022-08-03T12:40:07.969Z,31.88
2022-08-03T12:42:40.018Z,31.56
2022-08-03T12:45:21.332Z,32.31
2022-08-03T12:47:54.166Z,32.69
2022-08-03T12:50:27.192Z,33.01
2022-08-03T12:52:57.046Z,31.57
2022-08-03T12:55:27.646Z,31.67
2022-08-03T12:57:55.438Z,32.38
2022-08-03T13:00:29.606Z,32.55
2022-08-03T13:03:39.206Z,33.63
2022-08-03T13:05:52.096Z,34.41
2022-08-03T13:08:22.361Z,34.09
2022-08-03T13:10:51.441Z,35.02
2022-08-03T13:13:22.399Z,34.29
2022-08-03T13:15:52.395Z,34.18
2022-08-03T13:18:21.046Z,35.45
2022-08-03T13:20:51.087Z,35.19
2022-08-03T13:23:36.590Z,35.32
2022-08-03T13:26:04.606Z,35.70
2022-08-03T13:28:32.517Z,36.19
2022-08-03T13:31:00.319Z,35.98
2022-08-03T13:33:28.728Z,35.97
2022-08-03T13:35:56.970Z,36.74
2022-08-03T13:38:27.212Z,36.95
2022-08-03T13:40:58.210Z,36.01
2022-08-03T13:43:26.310Z,36.31
2022-08-03T13:45:57.982Z,37.47
2022-08-03T13:48:37.318Z,37.15
2022-08-03T13:51:21.722Z,36.59
2022-08-03T13:53:52.390Z,36.73
2022-08-03T13:56:21.906Z,36.45
2022-08-03T13:58:49.980Z,37.80
2022-08-03T14:01:29.691Z,36.53
2022-08-03T14:04:05.969Z,36.98
2022-08-03T14:07:45.056Z,37.16
2022-08-03T14:10:15.155Z,37.35
2022-08-03T14:12:44.374Z,37.14
2022-08-03T14:15:13.260Z,37.96
2022-08-03T14:17:49.642Z,38.48
2022-08-03T14:20:37.758Z,37.51
2022-08-03T14:23:07.866Z,37.68
2022-08-03T14:25:44.313Z,38.44
2022-08-03T14:28:22.752Z,37.85
2022-08-03T14:30:51.171Z,38.94
2022-08-03T14:33:19.150Z,38.96
2022-08-03T14:35:48.126Z,39.02
2022-08-03T14:38:16.194Z,39.95
2022-08-03T14:40:44.850Z,39.51
2022-08-03T14:43:12.512Z,38.84
2022-08-03T14:45:42.616Z,40.40
2022-08-03T14:50:33.249Z,38.92
2022-08-03T14:51:00.615Z,39.59
2022-08-03T14:53:30.242Z,39.97
2022-08-03T14:56:00.063Z,38.52
2022-08-03T14:58:28.842Z,38.34
2022-08-03T15:01:00.023Z,36.44
2022-08-03T15:03:28.428Z,39.19
2022-08-03T15:05:58.273Z,39.49
2022-08-03T15:08:28.044Z,38.95
2022-08-03T15:10:56.705Z,40.13
2022-08-03T15:13:25.495Z,39.34
2022-08-03T15:15:53.705Z,39.05
2022-08-03T15:18:23.458Z,39.62
2022-08-03T15:20:52.320Z,39.47
2022-08-03T15:23:20.477Z,39.64
2022-08-03T15:26:28.246Z,40.30
2022-08-03T15:28:37.411Z,37.84
2022-08-03T15:31:05.826Z,38.82
2022-08-03T15:33:35.442Z,39.73
2022-08-03T15:36:04.076Z,39.60
2022-08-03T15:38:32.306Z,36.86
2022-08-03T15:41:00.194Z,35.53
2022-08-03T15:43:28.715Z,37.02
2022-08-03T15:48:46.448Z,39.74
2022-08-03T15:51:16.315Z,40.38
2022-08-03T15:53:45.441Z,40.17
2022-08-03T15:56:18.414Z,39.32
2022-08-03T15:59:04.173Z,38.83
2022-08-03T16:01:35.305Z,39.86
2022-08-03T16:04:04.866Z,40.30
2022-08-03T16:06:35.876Z,40.77
2022-08-03T16:09:05.727Z,38.26
2022-08-03T16:11:53.435Z,38.32
2022-08-03T16:14:34.693Z,37.15
2022-08-03T16:17:07.919Z,39.70
2022-08-03T16:19:41.065Z,38.33
2022-08-03T16:22:08.817Z,39.48
2022-08-03T16:24:37.843Z,38.48
2022-08-03T16:27:15.543Z,39.08
2022-08-03T16:29:56.311Z,39.29
2022-08-03T16:32:24.279Z,39.57
2022-08-03T16:34:54.502Z,36.55
2022-08-03T16:37:38.068Z,37.03
2022-08-03T16:40:19.127Z,37.58
2022-08-03T16:42:47.239Z,37.14
2022-08-03T16:45:15.292Z,37.70
2022-08-03T16:47:43.164Z,36.85
2022-08-03T16:50:19.725Z,37.23
2022-08-03T16:52:48.737Z,38.37
2022-08-03T16:55:53.543Z,38.03
2022-08-03T16:58:06.881Z,38.42
2022-08-03T17:00:41.590Z,39.15
2022-08-03T17:03:16.409Z,37.76
2022-08-03T17:05:50.897Z,38.69
2022-08-03T17:08:26.628Z,38.80
2022-08-03T17:10:57.309Z,37.50
2022-08-03T17:13:38.933Z,37.18
2022-08-03T17:16:09.900Z,38.36
2022-08-03T17:18:42.177Z,38.89
2022-08-03T17:21:16.998Z,38.37
2022-08-03T17:23:47.830Z,36.43
2022-08-03T17:26:22.102Z,35.94
2022-08-03T17:28:58.276Z,35.81
2022-08-03T17:31:31.914Z,35.70
2022-08-03T17:34:02.006Z,36.49
2022-08-03T17:37:03.155Z,34.93
2022-08-03T17:44:13.053Z,33.66
2022-08-03T17:45:55.225Z,33.34
2022-08-03T17:48:25.249Z,31.85
2022-08-03T17:50:55.022Z,32.10
2022-08-03T17:53:30.764Z,31.98
2022-08-03T17:56:38.571Z,31.74
2022-08-03T17:59:01.047Z,31.49
2022-08-03T18:02:04.429Z,31.12
2022-08-03T18:06:10.540Z,31.09
2022-08-03T18:08:33.197Z,30.84
2022-08-03T18:11:14.564Z,30.63
2022-08-03T18:13:53.348Z,30.33
2022-08-03T18:16:29.960Z,30.21
2022-08-03T18:19:09.571Z,29.82
2022-08-03T18:22:02.983Z,29.73
2022-08-03T18:24:35.906Z,29.12
2022-08-03T18:27:07.055Z,28.47
2022-08-03T18:29:36.993Z,28.51
2022-08-03T18:32:13.475Z,28.55
2022-08-03T18:34:54.011Z,28.30
2022-08-03T18:37:33.704Z,27.89
2022-08-03T18:40:25.113Z,27.93
2022-08-03T18:42:56.378Z,27.64
2022-08-03T18:45:56.116Z,27.71
2022-08-03T18:48:19.161Z,26.99
2022-08-03T18:50:51.592Z,27.21
2022-08-03T18:54:03.075Z,26.54
2022-08-03T18:56:22.436Z,27.22
2022-08-03T18:58:53.288Z,26.96
2022-08-03T19:02:01.011Z,25.39
2022-08-03T19:04:27.011Z,24.82
2022-08-03T19:07:03.655Z,24.58
2022-08-03T19:09:39.726Z,24.24
2022-08-03T19:12:32.396Z,23.76
2022-08-03T19:15:05.633Z,24.14
2022-08-03T19:17:42.918Z,23.57
2022-08-03T19:20:21.765Z,23.55
2022-08-03T19:22:51.848Z,22.81
2022-08-03T19:25:20.449Z,22.65
2022-08-03T19:28:08.385Z,22.18
2022-08-03T19:30:39.022Z,22.11
2022-08-03T19:33:09.514Z,21.98
2022-08-03T19:35:51.166Z,21.76
2022-08-03T19:38:28.594Z,21.54
2022-08-03T19:41:00.650Z,21.34
2022-08-03T19:43:53.013Z,21.23
2022-08-03T19:46:30.357Z,21.18
2022-08-03T19:49:02.765Z,21.20
2022-08-03T19:52:00.862Z,21.69
2022-08-03T19:54:29.666Z,21.24
2022-08-03T19:57:02.015Z,21.59
2022-08-03T19:59:49.592Z,21.10
2022-08-03T20:02:26.459Z,20.76
2022-08-03T20:04:55.802Z,20.78
2022-08-03T20:07:24.036Z,21.34
2022-08-03T20:09:54.623Z,21.14
2022-08-03T20:13:28.453Z,21.83
2022-08-03T20:15:57.611Z,20.92
2022-08-03T20:18:25.420Z,20.58
2022-08-03T20:20:55.467Z,20.32
2022-08-03T20:23:24.370Z,20.49
2022-08-03T20:25:57.484Z,20.25
2022-08-03T20:28:32.429Z,20.34
2022-08-03T20:31:02.198Z,20.12
2022-08-03T20:33:46.121Z,19.93
2022-08-03T20:36:18.834Z,19.96
2022-08-03T20:38:48.074Z,20.14
2022-08-03T20:41:18.669Z,20.12
2022-08-03T20:43:49.525Z,20.16
2022-08-03T20:49:13.061Z,19.76
2022-08-03T20:51:49.761Z,19.91
2022-08-03T20:54:30.951Z,19.86
2022-08-03T20:58:01.039Z,19.92
2022-08-03T21:00:31.532Z,20.07
2022-08-03T21:03:02.149Z,20.17
2022-08-03T21:05:48.320Z,19.82
2022-08-03T21:08:23.155Z,19.88
2022-08-03T21:10:54.758Z,20.67
2022-08-03T21:13:12.468Z,19.89
2022-08-03T21:13:28.214Z,20.58
2022-08-03T21:16:12.810Z,19.99
2022-08-03T21:18:47.499Z,20.05
2022-08-03T21:21:17.862Z,20.26
2022-08-03T21:23:50.759Z,20.00
2022-08-03T21:26:20.423Z,19.72
2022-08-03T21:28:50.585Z,19.52
2022-08-03T21:31:24.635Z,19.48
2022-08-03T21:33:57.622Z,19.37
2022-08-03T21:36:27.398Z,19.38
2022-08-03T21:38:57.999Z,19.39
2022-08-03T21:41:28.970Z,19.62
2022-08-03T21:43:59.235Z,20.22
2022-08-03T21:46:29.177Z,19.59
2022-08-03T21:50:05.027Z,19.41
2022-08-03T21:51:53.719Z,19.94
2022-08-03T21:54:22.659Z,20.20
2022-08-03T21:56:52.477Z,19.31
2022-08-03T21:59:22.031Z,19.50
2022-08-03T22:01:55.433Z,19.53
2022-08-03T22:04:50.723Z,20.18
2022-08-03T22:07:23.760Z,20.26
2022-08-03T22:10:53.085Z,20.15
2022-08-03T22:13:43.191Z,19.56
2022-08-03T22:16:11.167Z,19.91
2022-08-03T22:18:39.753Z,19.13
2022-08-03T22:21:11.661Z,19.72
2022-08-03T22:23:42.409Z,19.38
2022-08-03T22:26:15.081Z,19.74
2022-08-03T22:28:43.744Z,19.59
2022-08-03T22:31:57.187Z,19.37
2022-08-03T22:34:00.197Z,19.30
2022-08-03T22:36:31.080Z,18.99
2022-08-03T22:38:59.890Z,19.29
2022-08-03T22:41:30.185Z,19.70
2022-08-03T22:44:00.005Z,19.64
2022-08-03T22:46:34.237Z,19.14
2022-08-03T22:49:02.364Z,19.07
2022-08-03T22:51:32.301Z,19.48
2022-08-03T22:54:00.346Z,18.92
2022-08-03T22:56:32.991Z,18.83
2022-08-03T22:59:02.762Z,18.85
2022-08-03T23:06:02.188Z,18.57
2022-08-03T23:08:25.632Z,18.67
2022-08-03T23:10:54.274Z,18.87
2022-08-03T23:13:25.808Z,18.65
2022-08-03T23:15:57.909Z,18.68
2022-08-03T23:18:34.089Z,18.86
2022-08-03T23:21:11.232Z,19.14
2022-08-03T23:23:44.585Z,18.72
2022-08-03T23:26:15.416Z,18.54
2022-08-03T23:28:46.437Z,18.60
2022-08-03T23:31:15.310Z,19.25
2022-08-03T23:33:46.182Z,18.61
2022-08-03T23:36:30.904Z,18.62
2022-08-03T23:39:02.971Z,18.52
2022-08-03T23:41:31.112Z,18.78
2022-08-03T23:44:00.654Z,18.49
2022-08-03T23:46:31.508Z,18.44
2022-08-03T23:48:59.877Z,18.90
2022-08-03T23:51:37.681Z,18.40
2022-08-03T23:54:11.386Z,18.69
2022-08-03T23:56:44.732Z,18.91
2022-08-03T23:59:31.206Z,18.20
